createdAt,value
2022-12-05T00:00:59.639Z,42.40
2022-12-05T00:03:26.541Z,40.03
2022-12-05T00:05:53.075Z,38.35
2022-12-05T00:08:19.665Z,33.30
2022-12-05T00:10:46.033Z,34.97
2022-12-05T00:13:12.389Z,38.25
2022-12-05T00:15:40.588Z,35.65
2022-12-05T00:18:06.971Z,35.92
2022-12-05T00:20:33.820Z,37.00
2022-12-05T00:23:00.265Z,33.33
2022-12-05T00:25:26.613Z,41.67
2022-12-05T00:27:53.066Z,35.50
2022-12-05T00:30:19.583Z,37.65
2022-12-05T00:32:45.914Z,35.63
2022-12-05T00:35:12.272Z,34.85
2022-12-05T00:37:38.620Z,37.63
2022-12-05T00:40:05.858Z,40.83
2022-12-05T00:42:32.246Z,36.28
2022-12-05T00:44:58.819Z,38.97
2022-12-05T00:47:25.212Z,38.47
2022-12-05T00:49:51.527Z,41.15
2022-12-05T00:52:17.867Z,35.30
2022-12-05T00:54:44.411Z,38.42
2022-12-05T00:57:10.777Z,38.30
2022-12-05T00:59:38.320Z,35.58
2022-12-05T01:02:04.664Z,39.42
2022-12-05T01:04:32.223Z,34.45
2022-12-05T01:06:58.780Z,38.83
2022-12-05T01:09:25.939Z,47.35
2022-12-05T01:11:52.674Z,36.13
2022-12-05T01:14:23.003Z,36.15
2022-12-05T01:16:51.044Z,39.83
2022-12-05T01:19:24.475Z,38.30
2022-12-05T01:21:51.645Z,36.13
2022-12-05T01:24:19.584Z,35.67
2022-12-05T01:26:46.203Z,42.05
2022-12-05T01:29:14.802Z,41.80
2022-12-05T01:31:41.333Z,38.15
2022-12-05T01:34:10.364Z,36.40
2022-12-05T01:36:37.159Z,39.20
2022-12-05T01:39:03.696Z,40.13
2022-12-05T01:41:32.982Z,42.28
2022-12-05T01:44:08.312Z,37.70
2022-12-05T01:46:37.518Z,37.70
2022-12-05T01:49:09.957Z,42.13
2022-12-05T01:51:39.409Z,36.25
2022-12-05T01:54:07.588Z,35.97
2022-12-05T01:56:35.599Z,42.13
2022-12-05T01:59:04.229Z,42.78
2022-12-05T02:01:30.748Z,37.97
2022-12-05T02:04:00.559Z,43.88
2022-12-05T02:06:27.562Z,41.05
2022-12-05T02:08:54.433Z,41.63
2022-12-05T02:11:23.074Z,40.85
2022-12-05T02:13:59.654Z,39.30
2022-12-05T02:16:29.139Z,36.97
2022-12-05T02:19:30.896Z,45.65
2022-12-05T02:22:19.186Z,39.97
2022-12-05T02:24:56.100Z,33.90
2022-12-05T02:27:42.047Z,40.50
2022-12-05T02:30:16.438Z,40.75
2022-12-05T02:33:08.649Z,38.47
2022-12-05T02:36:00.120Z,40.13
2022-12-05T02:38:36.099Z,43.33
2022-12-05T02:41:41.635Z,34.55
2022-12-05T02:44:15.883Z,33.00
2022-12-05T02:46:44.622Z,34.03
2022-12-05T02:49:16.308Z,38.33
2022-12-05T02:51:47.244Z,43.47
2022-12-05T02:56:47.131Z,33.03
2022-12-05T02:59:17.227Z,40.13
2022-12-05T03:01:46.576Z,37.70
2022-12-05T03:04:14.565Z,33.53
2022-12-05T03:06:52.854Z,40.13
2022-12-05T03:09:23.546Z,38.00
2022-12-05T03:12:02.516Z,37.15
2022-12-05T03:14:32.215Z,36.10
2022-12-05T03:17:03.150Z,37.17
2022-12-05T03:19:40.975Z,36.10
2022-12-05T03:22:12.720Z,38.42
2022-12-05T03:24:40.831Z,33.20
2022-12-05T03:27:27.481Z,38.65
2022-12-05T03:29:54.191Z,34.78
2022-12-05T03:32:30.288Z,36.92
2022-12-05T03:35:17.910Z,34.72
2022-12-05T03:38:05.105Z,32.25
2022-12-05T03:41:02.478Z,32.72
2022-12-05T03:43:35.014Z,37.55
2022-12-05T03:46:07.552Z,42.30
2022-12-05T03:48:58.859Z,33.97
2022-12-05T03:51:36.636Z,35.38
2022-12-05T03:54:13.835Z,37.58
2022-12-05T03:56:48.796Z,35.88
2022-12-05T03:59:27.166Z,33.05
2022-12-05T04:01:57.288Z,34.10
2022-12-05T04:04:33.940Z,35.40
2022-12-05T04:07:04.691Z,35.15
2022-12-05T04:09:37.203Z,34.05
2022-12-05T04:12:10.864Z,35.95
2022-12-05T04:14:40.009Z,28.98
2022-12-05T04:17:12.130Z,30.80
2022-12-05T04:19:46.841Z,32.65
2022-12-05T04:22:13.396Z,28.70
2022-12-05T04:24:39.933Z,31.75
2022-12-05T04:27:43.648Z,29.55
2022-12-05T04:30:12.686Z,34.05
2022-12-05T04:32:52.035Z,31.65
2022-12-05T04:35:24.321Z,30.73
2022-12-05T04:37:57.144Z,34.70
2022-12-05T04:40:31.015Z,31.50
2022-12-05T04:43:01.408Z,30.73
2022-12-05T04:45:29.400Z,33.88
2022-12-05T04:48:01.830Z,35.90
2022-12-05T04:50:33.465Z,33.00
2022-12-05T04:53:01.843Z,32.10
2022-12-05T04:55:33.807Z,32.33
2022-12-05T04:58:11.038Z,33.50
2022-12-05T05:00:46.680Z,32.75
2022-12-05T05:03:23.392Z,29.73
2022-12-05T05:08:21.994Z,31.25
2022-12-05T05:10:58.295Z,32.45
2022-12-05T05:13:24.828Z,31.77
2022-12-05T05:15:51.209Z,32.55
2022-12-05T05:18:17.607Z,31.25
2022-12-05T05:20:44.270Z,32.33
2022-12-05T05:23:10.656Z,29.60
2022-12-05T05:25:37.005Z,33.38
2022-12-05T05:28:05.840Z,34.10
2022-12-05T05:30:32.278Z,30.38
2022-12-05T05:33:02.082Z,34.28
2022-12-05T05:35:28.508Z,37.13
2022-12-05T05:37:54.870Z,33.78
2022-12-05T05:40:21.284Z,36.33
2022-12-05T05:42:50.103Z,33.00
2022-12-05T05:45:17.011Z,33.35
2022-12-05T05:47:43.960Z,34.50
2022-12-05T05:50:16.316Z,38.50
2022-12-05T05:52:46.187Z,37.38
2022-12-05T05:55:13.294Z,32.90
2022-12-05T05:57:39.598Z,34.80
2022-12-05T06:00:07.494Z,38.08
2022-12-05T06:02:36.553Z,39.42
2022-12-05T06:05:04.134Z,27.40
2022-12-05T06:07:30.828Z,32.53
2022-12-05T06:09:59.196Z,32.65
2022-12-05T06:12:25.889Z,32.63
2022-12-05T06:14:52.703Z,36.63
2022-12-05T06:17:19.375Z,34.67
2022-12-05T06:19:45.723Z,36.75
2022-12-05T06:22:12.135Z,31.92
2022-12-05T06:24:38.685Z,35.58
2022-12-05T06:27:05.247Z,33.42
2022-12-05T06:29:34.051Z,34.40
2022-12-05T06:32:01.150Z,32.83
2022-12-05T06:34:27.615Z,36.33
2022-12-05T06:36:53.929Z,31.80
2022-12-05T06:39:20.368Z,35.08
2022-12-05T06:41:46.691Z,38.17
2022-12-05T06:44:13.061Z,34.65
2022-12-05T06:46:39.347Z,32.15
2022-12-05T06:49:05.744Z,32.65
2022-12-05T06:51:32.064Z,37.78
2022-12-05T06:53:58.435Z,32.28
2022-12-05T06:56:24.837Z,38.63
2022-12-05T06:58:53.155Z,38.40
2022-12-05T07:01:21.590Z,35.08
2022-12-05T07:03:51.435Z,36.15
2022-12-05T07:06:17.869Z,37.38
2022-12-05T07:08:44.515Z,31.98
2022-12-05T07:11:10.951Z,34.45
2022-12-05T07:13:37.550Z,33.08
2022-12-05T07:16:04.191Z,33.15
2022-12-05T07:18:30.773Z,34.67
2022-12-05T07:21:15.708Z,32.58
2022-12-05T07:23:44.218Z,30.55
2022-12-05T07:26:14.380Z,30.48
2022-12-05T07:28:40.785Z,33.10
2022-12-05T07:31:10.275Z,33.28
2022-12-05T07:33:40.627Z,33.75
2022-12-05T07:36:10.672Z,29.83
2022-12-05T07:38:37.766Z,31.20
2022-12-05T07:41:12.772Z,35.63
2022-12-05T07:43:40.464Z,33.85
2022-12-05T07:46:10.267Z,34.90
2022-12-05T07:48:36.753Z,33.30
2022-12-05T07:51:05.820Z,31.75
2022-12-05T07:53:33.912Z,34.22
2022-12-05T07:56:02.269Z,32.20
2022-12-05T07:58:29.929Z,33.58
2022-12-05T08:00:57.528Z,35.88
2022-12-05T08:03:24.162Z,30.60
2022-12-05T08:06:01.071Z,32.80
2022-12-05T08:08:27.736Z,28.50
2022-12-05T08:10:54.353Z,31.70
2022-12-05T08:13:24.214Z,35.38
2022-12-05T08:15:50.602Z,28.77
2022-12-05T08:18:17.006Z,33.83
2022-12-05T08:20:43.542Z,28.15
2022-12-05T08:23:11.105Z,34.28
2022-12-05T08:25:37.481Z,29.80
2022-12-05T08:28:03.922Z,28.73
2022-12-05T08:30:30.241Z,30.95
2022-12-05T08:32:56.655Z,28.70
2022-12-05T08:35:25.637Z,33.50
2022-12-05T08:37:52.181Z,28.95
2022-12-05T08:40:20.763Z,28.10
2022-12-05T08:42:47.445Z,31.23
2022-12-05T08:45:13.828Z,28.40
2022-12-05T08:47:40.124Z,32.80
2022-12-05T08:50:07.418Z,28.48
2022-12-05T08:52:33.985Z,29.95
2022-12-05T08:55:00.867Z,27.92
2022-12-05T08:57:27.382Z,31.20
2022-12-05T08:59:53.872Z,26.25
2022-12-05T09:02:20.478Z,27.73
2022-12-05T09:04:53.894Z,28.30
2022-12-05T09:07:20.686Z,27.00
2022-12-05T09:09:47.212Z,26.45
2022-12-05T09:12:13.632Z,27.27
2022-12-05T09:14:40.031Z,28.15
2022-12-05T09:17:08.719Z,28.90
2022-12-05T09:19:35.526Z,28.05
2022-12-05T09:22:02.086Z,24.40
2022-12-05T09:24:28.781Z,26.30
2022-12-05T09:26:55.140Z,20.52
2022-12-05T09:29:21.546Z,26.92
2022-12-05T09:31:48.708Z,24.45
2022-12-05T09:34:15.905Z,24.67
2022-12-05T09:36:46.330Z,18.05
2022-12-05T09:39:14.306Z,26.02
2022-12-05T09:41:56.084Z,26.98
2022-12-05T09:44:44.078Z,24.48
2022-12-05T09:47:33.865Z,26.50
2022-12-05T09:50:11.865Z,23.95
2022-12-05T09:52:43.535Z,22.50
2022-12-05T09:55:17.731Z,20.30
2022-12-05T09:57:57.107Z,22.88
2022-12-05T10:00:24.678Z,21.65
2022-12-05T10:03:06.215Z,19.75
2022-12-05T10:05:47.158Z,18.65
2022-12-05T10:08:39.954Z,21.40
2022-12-05T10:11:34.906Z,21.60
2022-12-05T10:14:19.974Z,20.73
2022-12-05T10:16:58.947Z,19.00
2022-12-05T10:19:35.719Z,19.10
2022-12-05T10:24:44.786Z,18.63
2022-12-05T10:27:19.222Z,19.20
2022-12-05T10:30:01.078Z,18.63
2022-12-05T10:32:56.249Z,18.40
2022-12-05T10:35:24.166Z,20.60
2022-12-05T10:38:01.131Z,20.00
2022-12-05T10:40:34.266Z,15.35
2022-12-05T10:43:00.661Z,21.83
2022-12-05T10:45:27.254Z,16.35
2022-12-05T10:47:57.235Z,17.70
2022-12-05T10:50:44.034Z,15.45
2022-12-05T10:53:19.369Z,20.30
2022-12-05T10:56:21.639Z,18.67
2022-12-05T11:01:10.257Z,14.90
2022-12-05T11:03:40.118Z,17.00
2022-12-05T11:06:22.427Z,19.08
2022-12-05T11:09:05.880Z,17.23
2022-12-05T11:11:33.560Z,14.73
2022-12-05T11:14:03.047Z,13.27
2022-12-05T11:16:39.550Z,12.38
2022-12-05T11:19:21.303Z,11.60
2022-12-05T11:21:52.081Z,11.30
2022-12-05T11:26:49.535Z,9.35
2022-12-05T11:29:37.451Z,10.20
2022-12-05T11:32:05.792Z,8.45
2022-12-05T11:34:42.598Z,8.88
2022-12-05T11:37:22.973Z,8.02
2022-12-05T11:39:49.306Z,8.07
2022-12-05T11:42:35.890Z,6.97
2022-12-05T11:45:07.065Z,8.13
2022-12-05T11:47:48.603Z,7.43
2022-12-05T11:50:24.699Z,7.72
2022-12-05T11:53:28.358Z,9.65
2022-12-05T11:56:06.203Z,9.60
2022-12-05T11:58:56.389Z,9.13
2022-12-05T12:01:36.894Z,10.40
2022-12-05T12:04:23.048Z,10.40
2022-12-05T12:07:27.162Z,9.85
2022-12-05T12:10:10.173Z,7.60
2022-12-05T12:12:55.090Z,8.15
2022-12-05T12:15:36.060Z,8.40
2022-12-05T12:18:20.133Z,8.07
2022-12-05T12:21:04.541Z,6.90
2022-12-05T12:23:54.628Z,9.40
2022-12-05T12:26:50.969Z,8.00
2022-12-05T12:29:35.700Z,10.20
2022-12-05T12:32:52.581Z,6.45
2022-12-05T12:35:46.983Z,8.50
2022-12-05T12:38:21.944Z,9.38
2022-12-05T12:40:54.966Z,7.75
2022-12-05T12:46:50.576Z,6.53
2022-12-05T12:49:46.499Z,9.85
2022-12-05T12:52:22.212Z,6.25
2022-12-05T12:55:16.400Z,7.05
2022-12-05T12:58:38.795Z,7.03
2022-12-05T13:01:30.515Z,6.35
2022-12-05T13:04:06.253Z,5.55
2022-12-05T13:06:39.752Z,4.93
2022-12-05T13:09:18.332Z,5.95
2022-12-05T13:11:46.688Z,5.95
2022-12-05T13:14:20.261Z,5.65
2022-12-05T13:16:51.707Z,6.05
2022-12-05T13:19:47.829Z,6.68
2022-12-05T13:22:18.043Z,5.55
2022-12-05T13:24:44.588Z,4.65
2022-12-05T13:27:22.800Z,6.88
2022-12-05T13:29:57.732Z,6.75
2022-12-05T13:32:26.694Z,6.47
2022-12-05T13:34:54.294Z,5.57
2022-12-05T13:37:29.498Z,5.78
2022-12-05T13:39:58.456Z,6.20
2022-12-05T13:42:28.685Z,6.75
2022-12-05T13:45:19.769Z,7.90
2022-12-05T13:48:08.841Z,7.25
2022-12-05T13:50:58.982Z,6.10
2022-12-05T13:53:41.127Z,8.23
2022-12-05T13:56:26.324Z,6.30
2022-12-05T13:58:52.584Z,8.05
2022-12-05T14:01:25.130Z,6.45
2022-12-05T14:03:51.928Z,7.45
2022-12-05T14:06:36.648Z,6.78
2022-12-05T14:09:03.359Z,6.13
2022-12-05T14:11:30.238Z,7.55
2022-12-05T14:14:00.911Z,8.15
2022-12-05T14:16:30.582Z,6.45
2022-12-05T14:19:12.618Z,7.53
2022-12-05T14:21:47.275Z,6.13
2022-12-05T14:24:34.401Z,6.70
2022-12-05T14:27:11.398Z,6.10
2022-12-05T14:30:25.415Z,6.78
2022-12-05T14:32:53.851Z,8.18
2022-12-05T14:35:30.080Z,4.82
2022-12-05T14:38:01.615Z,7.05
2022-12-05T14:41:06.007Z,6.03
2022-12-05T14:43:34.463Z,7.22
2022-12-05T14:46:04.083Z,7.70
2022-12-05T14:48:47.060Z,6.60
2022-12-05T14:51:44.613Z,6.70
2022-12-05T14:54:17.746Z,6.35
2022-12-05T14:56:47.111Z,7.13
2022-12-05T14:59:55.909Z,8.25
2022-12-05T15:02:32.681Z,6.88
2022-12-05T15:05:18.304Z,6.75
2022-12-05T15:07:46.522Z,7.13
2022-12-05T15:10:28.400Z,6.40
2022-12-05T15:13:00.566Z,10.48
2022-12-05T15:15:39.191Z,6.95
2022-12-05T15:18:31.079Z,7.72
2022-12-05T15:21:06.483Z,7.65
2022-12-05T15:23:39.683Z,7.78
2022-12-05T15:26:45.043Z,7.05
2022-12-05T15:29:11.670Z,6.45
2022-12-05T15:31:46.950Z,6.30
2022-12-05T15:34:36.864Z,7.47
2022-12-05T15:37:09.157Z,6.65
2022-12-05T15:39:54.574Z,5.47
2022-12-05T15:42:27.681Z,7.45
2022-12-05T15:45:14.634Z,7.78
2022-12-05T15:47:53.800Z,7.70
2022-12-05T15:50:39.659Z,6.53
2022-12-05T15:53:29.915Z,7.97
2022-12-05T15:56:08.921Z,8.80
2022-12-05T15:58:40.215Z,9.95
2022-12-05T16:01:23.626Z,9.35
2022-12-05T16:04:01.703Z,8.38
2022-12-05T16:06:42.607Z,8.73
2022-12-05T16:09:15.780Z,7.75
2022-12-05T16:12:26.098Z,6.18
2022-12-05T16:15:00.268Z,7.68
2022-12-05T16:17:30.318Z,6.60
2022-12-05T16:20:12.181Z,8.57
2022-12-05T16:22:50.568Z,8.15
2022-12-05T16:28:24.001Z,7.85
2022-12-05T16:30:56.825Z,7.32
2022-12-05T16:33:23.615Z,8.57
2022-12-05T16:35:50.344Z,6.68
2022-12-05T16:38:16.767Z,7.53
2022-12-05T16:40:46.228Z,6.22
2022-12-05T16:43:24.332Z,7.53
2022-12-05T16:45:53.880Z,7.10
2022-12-05T16:48:29.412Z,6.05
2022-12-05T16:51:25.271Z,5.78
2022-12-05T16:53:56.587Z,6.05
2022-12-05T16:56:24.876Z,6.22
2022-12-05T16:58:51.763Z,7.78
2022-12-05T17:01:21.283Z,6.35
2022-12-05T17:03:48.139Z,7.25
2022-12-05T17:06:15.428Z,6.97
2022-12-05T17:08:42.700Z,7.25
2022-12-05T17:11:18.702Z,6.15
2022-12-05T17:13:46.496Z,7.38
2022-12-05T17:16:19.678Z,6.22
2022-12-05T17:18:46.476Z,6.93
2022-12-05T17:21:18.610Z,7.80
2022-12-05T17:23:47.985Z,8.40
2022-12-05T17:26:17.471Z,7.00
2022-12-05T17:28:43.982Z,7.93
2022-12-05T17:31:13.622Z,7.30
2022-12-05T17:33:40.123Z,6.43
2022-12-05T17:36:09.279Z,6.57
2022-12-05T17:38:40.353Z,7.25
2022-12-05T17:41:07.558Z,6.70
2022-12-05T17:43:34.695Z,6.20
2022-12-05T17:46:02.604Z,5.45
2022-12-05T17:48:29.319Z,7.60
2022-12-05T17:50:56.223Z,6.68
2022-12-05T17:53:22.668Z,7.60
2022-12-05T17:55:51.847Z,6.28
2022-12-05T17:58:18.532Z,6.10
2022-12-05T18:00:46.033Z,7.50
2022-12-05T18:03:15.049Z,7.88
2022-12-05T18:05:41.652Z,7.38
2022-12-05T18:08:09.161Z,7.93
2022-12-05T18:10:36.113Z,7.22
2022-12-05T18:13:03.402Z,9.40
2022-12-05T18:15:31.163Z,7.50
2022-12-05T18:17:58.959Z,8.30
2022-12-05T18:20:25.379Z,9.27
2022-12-05T18:22:52.003Z,6.53
2022-12-05T18:25:18.776Z,7.28
2022-12-05T18:27:45.107Z,7.55
2022-12-05T18:30:12.315Z,5.78
2022-12-05T18:32:38.928Z,6.65
2022-12-05T18:35:09.981Z,6.93
2022-12-05T18:37:39.956Z,7.15
2022-12-05T18:40:08.490Z,5.78
2022-12-05T18:42:35.052Z,6.43
2022-12-05T18:45:04.125Z,6.20
2022-12-05T18:47:31.434Z,6.10
2022-12-05T18:49:57.965Z,6.75
2022-12-05T18:52:28.542Z,6.68
2022-12-05T18:55:15.657Z,7.07
2022-12-05T18:57:41.620Z,6.93
2022-12-05T19:00:08.746Z,7.68
2022-12-05T19:02:35.275Z,8.13
2022-12-05T19:05:02.005Z,6.80
2022-12-05T19:07:28.685Z,6.57
2022-12-05T19:09:57.938Z,6.40
2022-12-05T19:12:24.280Z,7.57
2022-12-05T19:14:51.915Z,6.93
2022-12-05T19:17:18.456Z,5.72
2022-12-05T19:19:44.821Z,5.07
2022-12-05T19:22:12.682Z,5.25
2022-12-05T19:24:41.397Z,5.10
2022-12-05T19:27:08.376Z,5.80
2022-12-05T19:29:34.703Z,5.68
2022-12-05T19:32:01.398Z,5.50
2022-12-05T19:34:28.086Z,5.90
2022-12-05T19:36:54.774Z,4.85
2022-12-05T19:39:27.061Z,5.35
2022-12-05T19:41:53.817Z,6.55
2022-12-05T19:44:20.193Z,6.78
2022-12-05T19:46:48.376Z,5.97
2022-12-05T19:49:15.928Z,5.95
2022-12-05T19:51:43.305Z,8.32
2022-12-05T19:54:11.446Z,5.80
2022-12-05T19:56:38.132Z,6.40
2022-12-05T19:59:05.784Z,7.03
2022-12-05T20:01:36.957Z,6.93
2022-12-05T20:04:09.118Z,6.90
2022-12-05T20:06:46.615Z,9.75
2022-12-05T20:09:14.737Z,6.75
2022-12-05T20:11:44.879Z,5.90
2022-12-05T20:14:14.411Z,7.43
2022-12-05T20:16:41.354Z,8.15
2022-12-05T20:19:07.760Z,5.78
2022-12-05T20:21:35.807Z,6.03
2022-12-05T20:24:04.570Z,7.38
2022-12-05T20:26:38.132Z,8.55
2022-12-05T20:29:06.260Z,7.20
2022-12-05T20:31:38.563Z,8.25
2022-12-05T20:34:06.463Z,7.38
2022-12-05T20:36:34.633Z,6.97
2022-12-05T20:39:14.263Z,7.60
2022-12-05T20:41:41.269Z,7.57
2022-12-05T20:44:08.571Z,6.40
2022-12-05T20:46:35.365Z,6.95
2022-12-05T20:49:02.205Z,6.82
2022-12-05T20:51:31.658Z,6.30
2022-12-05T20:54:00.064Z,5.93
2022-12-05T20:56:29.255Z,6.70
2022-12-05T20:58:58.104Z,8.20
2022-12-05T21:01:26.704Z,7.10
2022-12-05T21:03:54.307Z,5.53
2022-12-05T21:06:26.405Z,7.57
2022-12-05T21:08:53.765Z,7.32
2022-12-05T21:11:20.414Z,7.60
2022-12-05T21:13:46.991Z,7.40
2022-12-05T21:16:16.558Z,7.95
2022-12-05T21:18:44.747Z,7.13
2022-12-05T21:21:17.039Z,7.40
2022-12-05T21:23:45.670Z,6.25
2022-12-05T21:26:16.861Z,7.75
2022-12-05T21:31:31.797Z,6.55
2022-12-05T21:36:40.382Z,6.45
2022-12-05T21:39:07.138Z,6.35
2022-12-05T21:41:35.414Z,7.15
2022-12-05T21:44:02.106Z,6.53
2022-12-05T21:46:30.942Z,6.53
2022-12-05T21:49:03.153Z,6.10
2022-12-05T21:51:29.868Z,5.63
2022-12-05T21:54:01.003Z,6.13
2022-12-05T21:56:30.033Z,6.63
2022-12-05T21:58:58.895Z,4.78
2022-12-05T22:01:29.577Z,4.90
2022-12-05T22:03:58.399Z,5.47
2022-12-05T22:06:25.393Z,6.35
2022-12-05T22:08:54.101Z,5.68
2022-12-05T22:11:22.787Z,4.55
2022-12-05T22:13:49.591Z,4.80
2022-12-05T22:16:17.198Z,5.53
2022-12-05T22:18:44.399Z,6.32
2022-12-05T22:21:14.412Z,4.47
2022-12-05T22:23:40.880Z,6.75
2022-12-05T22:26:33.670Z,5.60
2022-12-05T22:29:00.273Z,5.88
2022-12-05T22:31:27.923Z,5.43
2022-12-05T22:33:54.380Z,4.78
2022-12-05T22:36:20.760Z,6.10
2022-12-05T22:38:47.995Z,6.95
2022-12-05T22:41:26.940Z,6.03
2022-12-05T22:43:56.027Z,5.63
2022-12-05T22:46:22.841Z,6.00
2022-12-05T22:48:50.376Z,9.43
2022-12-05T22:51:18.752Z,5.88
2022-12-05T22:53:46.089Z,5.68
2022-12-05T22:56:15.291Z,8.45
2022-12-05T22:58:42.358Z,6.70
2022-12-05T23:01:11.399Z,8.82
2022-12-05T23:03:38.371Z,6.85
2022-12-05T23:06:11.413Z,6.47
2022-12-05T23:08:40.166Z,8.18
2022-12-05T23:11:07.066Z,6.55
2022-12-05T23:13:35.149Z,7.70
2022-12-05T23:16:13.832Z,6.30
2022-12-05T23:18:40.732Z,6.88
2022-12-05T23:21:07.111Z,8.32
2022-12-05T23:23:33.465Z,6.55
2022-12-05T23:26:01.064Z,5.03
2022-12-05T23:28:27.792Z,11.85
2022-12-05T23:30:54.360Z,6.15
2022-12-05T23:33:20.716Z,6.45
2022-12-05T23:35:47.111Z,7.50
2022-12-05T23:38:13.560Z,8.27
2022-12-05T23:40:39.939Z,8.07
2022-12-05T23:43:06.452Z,7.47
2022-12-05T23:45:35.164Z,8.00
2022-12-05T23:48:04.573Z,8.02
2022-12-05T23:50:31.871Z,8.27
2022-12-05T23:52:58.342Z,9.13
2022-12-05T23:55:25.144Z,8.15
2022-12-05T23:57:51.549Z,7.00
